Terminal Aerodrome Forecast
Issued by NWS

Home | Current Version | Previous Version | Graphics & Text | Print | Product List | Glossary On
Versions: 1 2 3 4 5 6 7 8 9 10 11 12 13 14 15 16 17
000
FTUS43 KTOP 160500
TAFMHK
TAF
KMHK 160520Z 1606/1706 18016G23KT P6SM BKN200
     FM161300 21020G30KT P6SM BKN200
     FM162200 36014G20KT P6SM BKN080=

USA.gov is the U.S. government's official web portal to all federal, state and local government web resources and services.